Πλησιέστερες Αναφορές METAR

 

LGTS - Thessaloniki/Makedonia-Elev 7m
Distance from station: Ν 13km
Ενημερώθηκε: 23/10/2021 10:20
Mist, Σχεδόν νεφελώδης
Mist, Σχεδόν νεφελώδης
 Ανεμος από varies
Ανεμος: varies 4 km/h
Θερμοκρασία: 15°C
Σημείο Δρόσου: 14°C
Υγρασία: 94%
Βαρόμετρο: 1021 hPa
Συνθήκες: Mist
Clouds: Σχεδόν νεφελώδης
Visibility: 2 km
Cloud details: Few Clouds 152 m
Σχεδόν νεφελώδης 366 m
2021/10/23 07:20 LGTS 230720Z VRB02KT 2000 BR FEW005 BKN012 15/14 Q1021 BECMG 1500
LGAV - Athens/Elef. Venizelos-Elev 94m
Distance from station: ΝΝΑ 312km
Ενημερώθηκε: 23/10/2021 10:20
Αίθριος
Αίθριος
 Ανεμος από varies
Ανεμος: varies 4 km/h
Θερμοκρασία: 21°C
Σημείο Δρόσου: 13°C
Υγρασία: 60%
Βαρόμετρο: 1022 hPa
Συνθήκες: Αίθριος
Visibility: greater than 10 km
2021/10/23 07:20 LGAV 230720Z VRB02KT CAVOK 21/13 Q1022 NOSIG
 
LGAL - Alexandroupolis-Elev 3m
Distance from station: Α 251km
Ενημερώθηκε: 23/10/2021 10:20
Αίθριος
Αίθριος
 Ανεμος από calm
Ανεμος: Απνοια
Θερμοκρασία: 16°C
Σημείο Δρόσου: 12°C
Υγρασία: 77%
Βαρόμετρο: 1020 hPa
Συνθήκες: Αίθριος
Visibility: greater than 10 km
2021/10/23 07:20 LGAL 230720Z 00000KT CAVOK 16/12 Q1020
LGKV - Kavala/Crysoupolis-Elev 5m
Distance from station: ΑΒΑ 144km
Ενημερώθηκε: 23/10/2021 10:20
Αίθριος
Αίθριος
 Ανεμος από Α
Ανεμος: Α 4 km/h
Θερμοκρασία: 15°C
Σημείο Δρόσου: 12°C
Υγρασία: 82%
Βαρόμετρο: 1020 hPa
Συνθήκες: Αίθριος
Visibility: greater than 10 km
2021/10/23 07:20 LGKV 230720Z 10002KT CAVOK 15/12 Q1020
 
LGSK - Skiathos Island-Elev 15m
Distance from station: ΝΝΑ 168km
Ενημερώθηκε: 23/10/2021 09:50
Few Clouds
Few Clouds
 Ανεμος από calm
Ανεμος: Απνοια
Θερμοκρασία: 19°C
Σημείο Δρόσου: 16°C
Υγρασία: 83%
Βαρόμετρο: 1020 hPa
Clouds: Few Clouds
Visibility: 10 km
Cloud details: Few Clouds 305 m
2021/10/23 06:50 LGSK 230650Z 00000KT 9999 FEW010 19/16 Q1020
LGLM - Limnos Island-Elev 5m
Distance from station: ΑΝΑ 210km
Ενημερώθηκε: 23/10/2021 10:20
Ομίχλη, Σχεδόν νεφελώδης
Ομίχλη, Σχεδόν νεφελώδης
 Ανεμος από calm
Ανεμος: Απνοια
Θερμοκρασία: 17°C
Σημείο Δρόσου: 17°C
Υγρασία: 100%
Βαρόμετρο: 1020 hPa
Συνθήκες: Ομίχλη
Clouds: Σχεδόν νεφελώδης
Visibility: 1 km
Cloud details: Σχεδόν νεφελώδης 152 m
2021/10/23 07:20 LGLM 230720Z 00000KT 0500 FG BKN005 17/17 Q1020
 
LGMT - Mitilini Island-Elev 17m
Distance from station: ΑΝΑ 358km
Ενημερώθηκε: 23/10/2021 10:20
Few Clouds
Few Clouds
 Ανεμος από varies
Ανεμος: varies 6 km/h
Θερμοκρασία: 16°C
Σημείο Δρόσου: 13°C
Υγρασία: 83%
Βαρόμετρο: 1021 hPa
Clouds: Few Clouds
Visibility: 10 km
Cloud details: Few Clouds 762 m
2021/10/23 07:20 LGMT 230720Z VRB03KT 9999 FEW025 16/13 Q1021
LGSY - Skiros Island-Elev 15m
Distance from station: ΝΑ 227km
Ενημερώθηκε: 23/10/2021 08:50
Μη Ενημερωμένο!
Αίθριος
Αίθριος
 Ανεμος από calm
Ανεμος: Απνοια
Θερμοκρασία: 18°C
Σημείο Δρόσου: 16°C
Υγρασία: 88%
Βαρόμετρο: 1020 hPa
Συνθήκες: Αίθριος
Visibility: greater than 10 km
2021/10/23 05:50 LGSY 230550Z 00000KT CAVOK 18/16 Q1020 RMK FEW180 BLU
 
LGKZ - Kozani-Elev 628m
Distance from station: ΔΝΔ 102km
Ενημερώθηκε: 23/10/2021 09:50
Μερικώς νεφελώδης
Μερικώς νεφελώδης
 Ανεμος από calm
Ανεμος: Απνοια
Θερμοκρασία: 14°C
Σημείο Δρόσου: 8°C
Υγρασία: 67%
Βαρόμετρο: 1023 hPa
Clouds: Μερικώς νεφελώδης
Visibility: 10 km
Cloud details: Few Clouds 762 m
Μερικώς νεφελώδης 2134 m
2021/10/23 06:50 LGKZ 230650Z 00000KT 9999 FEW025 SCT070 14/08 Q1023
LGIO - Ioannina-Elev 476m
Distance from station: ΔΝΔ 209km
Ενημερώθηκε: 23/10/2021 10:20
Mist, Μερικώς νεφελώδης
Mist, Μερικώς νεφελώδης
 Ανεμος από calm
Ανεμος: Απνοια
Θερμοκρασία: 14°C
Σημείο Δρόσου: 12°C
Υγρασία: 88%
Βαρόμετρο: 1023 hPa
Συνθήκες: Mist
Clouds: Μερικώς νεφελώδης
Visibility: 5 km
Cloud details: Few Clouds 152 m
Μερικώς νεφελώδης 2438 m
2021/10/23 07:20 LGIO 230720Z 00000KT 5000 BR FEW005 SCT080 14/12 Q1023
 
LGZA - Zakinthos-Elev 3m
Distance from station: ΝΝΔ 367km
Ενημερώθηκε: 23/10/2021 09:50
Σχεδόν νεφελώδης
Σχεδόν νεφελώδης
 Ανεμος από ΝΝΑ
Ανεμος: ΝΝΑ 9 km/h
Θερμοκρασία: 21°C
Σημείο Δρόσου: 19°C
Υγρασία: 88%
Βαρόμετρο: 1022 hPa
Clouds: Σχεδόν νεφελώδης
Visibility: 10 km
Cloud details: Μερικώς νεφελώδης 549 m
Σχεδόν νεφελώδης 2134 m
2021/10/23 06:50 LGZA 230650Z 16005KT 9999 SCT018 BKN070 21/19 Q1022
LGKR - Corfu Island-Elev 2m
Distance from station: ΔΝΔ 282km
Ενημερώθηκε: 23/10/2021 10:20
Ασθενής βροχή, Σχεδόν νεφελώδης
Ασθενής βροχή, Σχεδόν νεφελώδης
 Ανεμος από ΝΑ
Ανεμος: ΝΑ 11 km/h
Θερμοκρασία: 17°C
Σημείο Δρόσου: 16°C
Υγρασία: 94%
Βαρόμετρο: 1020 hPa
Συνθήκες: Ασθενής βροχή
Clouds: Σχεδόν νεφελώδης
Visibility: 7 km
Cloud details: Μερικώς νεφελώδης 305 m
Μερικώς νεφελώδης 488 m
Σχεδόν νεφελώδης 762 m
2021/10/23 07:20 LGKR 230720Z 13006KT 7000 -RA SCT010 SCT016TCU BKN025 17/16 Q1020 RERA NOSIG
 
LGSO - Syros Island-Elev 72m
Distance from station: ΝΝΑ 397km
Ενημερώθηκε: 23/10/2021 09:50
Few Clouds
Few Clouds
 Ανεμος από varies
Ανεμος: varies 4 km/h
Θερμοκρασία: 21°C
Σημείο Δρόσου: 16°C
Υγρασία: 73%
Βαρόμετρο: 1021 hPa
Clouds: Few Clouds
Visibility: 10 km
Cloud details: Few Clouds 549 m
2021/10/23 06:50 LGSO 230650Z VRB02KT 9999 FEW018 21/16 Q1021
LGMK - Mikonos Island-Elev 123m
Distance from station: ΝΝΑ 412km
Ενημερώθηκε: 23/10/2021 10:20
Μερικώς νεφελώδης
Μερικώς νεφελώδης
 Ανεμος από calm
Ανεμος: Απνοια
Θερμοκρασία: 20°C
Σημείο Δρόσου: 13°C
Υγρασία: 64%
Βαρόμετρο: 1021 hPa
Clouds: Μερικώς νεφελώδης
Visibility: 10 km
Cloud details: Μερικώς νεφελώδης 244 m
2021/10/23 07:20 LGMK 230720Z 00000KT 9999 SCT008 20/13 Q1021
 
LGSR - Santorini Island-Elev 40m
Distance from station: ΝΝΑ 520km
Ενημερώθηκε: 23/10/2021 10:20
Αίθριος
Αίθριος
 Ανεμος από varies
Ανεμος: varies 6 km/h
Θερμοκρασία: 21°C
Σημείο Δρόσου: 16°C
Υγρασία: 73%
Βαρόμετρο: 1021 hPa
Συνθήκες: Αίθριος
Visibility: greater than 10 km
2021/10/23 07:20 LGSR 230720Z VRB03KT CAVOK 21/16 Q1021
LGKL - Kalamata-Elev 8m
Distance from station: Ν 405km
Ενημερώθηκε: 23/10/2021 10:20
Few Clouds
Few Clouds
 Ανεμος από ΒΒΔ
Ανεμος: ΒΒΔ 7 km/h
Θερμοκρασία: 19°C
Σημείο Δρόσου: 15°C
Υγρασία: 78%
Βαρόμετρο: 1023 hPa
Clouds: Few Clouds
Visibility: 10 km
Cloud details: Few Clouds 914 m
2021/10/23 07:20 LGKL 230720Z 34004KT 9999 FEW030 19/15 Q1023
 
LGIR - Iraklion/Crete-Elev 5m
Distance from station: ΝΝΑ 622km
Ενημερώθηκε: 23/10/2021 10:20
Αίθριος
Αίθριος
 Ανεμος από varies
Ανεμος: varies 7 km/h
Θερμοκρασία: 20°C
Σημείο Δρόσου: 16°C
Υγρασία: 78%
Βαρόμετρο: 1021 hPa
Συνθήκες: Αίθριος
Visibility: greater than 10 km
2021/10/23 07:20 LGIR 230720Z VRB04KT CAVOK 20/16 Q1021 NOSIG
LGRP - Rhodes-Elev 5m
Distance from station: ΝΑ 649km
Ενημερώθηκε: 23/10/2021 10:20
Αίθριος
Αίθριος
 Ανεμος από ΔΒΔ
Ανεμος: ΔΒΔ 13 km/h
Θερμοκρασία: 20°C
Σημείο Δρόσου: 15°C
Υγρασία: 73%
Βαρόμετρο: 1020 hPa
Συνθήκες: Αίθριος
Visibility: greater than 10 km
2021/10/23 07:20 LGRP 230720Z 29007KT CAVOK 20/15 Q1020 NOSIG
 
LWOH - Ohrid/FYROM-Elev 761m
Distance from station: ΔΒΔ 188km
Ενημερώθηκε: 23/10/2021 10:00
Μερικώς νεφελώδης
Μερικώς νεφελώδης
 Ανεμος από calm
Ανεμος: Απνοια
Θερμοκρασία: 12°C
Σημείο Δρόσου: 10°C
Υγρασία: 88%
Βαρόμετρο: 1023 hPa
Clouds: Μερικώς νεφελώδης
Visibility: 10 km
Cloud details: Μερικώς νεφελώδης 1219 m
2021/10/23 07:00 LWOH 230700Z 00000KT 9999 SCT040 12/10 Q1023
LBSF - Sofia/Bulgaria-Elev 595m
Distance from station: Β 227km
Ενημερώθηκε: 23/10/2021 10:00
Συννεφιά
Συννεφιά
 Ανεμος από calm
Ανεμος: Απνοια
Θερμοκρασία: 10°C
Σημείο Δρόσου: 8°C
Υγρασία: 88%
Βαρόμετρο: 1022 hPa
Clouds: Συννεφιά
Visibility: 10 km
Cloud details: Μερικώς νεφελώδης 1311 m
Σχεδόν νεφελώδης 2073 m
Συννεφιά 2652 m
2021/10/23 07:00 LBSF 230700Z 00000KT 9999 SCT043 BKN068 OVC087 10/08 Q1022 NOSIG
Σημερινά ρεκόρ Μετεωρολογικού Σταθμού
Δεν έχει σημειωθεί νέο ρεκόρ μέχρι τις 10:27 σήμερα - 23/10/2021